sensor_id;sensor_type;location;lat;lon;timestamp;pressure;altitude;pressure_sealevel;temperature;humidity
10852;BME280;5479;52.046;6.314;2023-02-19T00:01:45;101600.72;;;10.03;100.00
10852;BME280;5479;52.046;6.314;2023-02-19T00:04:15;101592.72;;;10.04;100.00
10852;BME280;5479;52.046;6.314;2023-02-19T00:06:45;101603.38;;;10.03;100.00
10852;BME280;5479;52.046;6.314;2023-02-19T00:09:15;101604.28;;;10.02;100.00
10852;BME280;5479;52.046;6.314;2023-02-19T00:11:44;101599.00;;;10.02;100.00
10852;BME280;5479;52.046;6.314;2023-02-19T00:14:15;101610.84;;;9.93;100.00
10852;BME280;5479;52.046;6.314;2023-02-19T00:16:45;101611.56;;;9.97;100.00
10852;BME280;5479;52.046;6.314;2023-02-19T00:19:14;101604.09;;;9.86;100.00
10852;BME280;5479;52.046;6.314;2023-02-19T00:21:43;101605.50;;;9.95;100.00
10852;BME280;5479;52.046;6.314;2023-02-19T00:24:12;101606.19;;;9.98;100.00
10852;BME280;5479;52.046;6.314;2023-02-19T00:26:41;101606.41;;;9.94;100.00
10852;BME280;5479;52.046;6.314;2023-02-19T00:29:12;101600.25;;;9.93;100.00
10852;BME280;5479;52.046;6.314;2023-02-19T00:31:41;101613.47;;;9.93;100.00
10852;BME280;5479;52.046;6.314;2023-02-19T00:34:11;101608.94;;;9.97;100.00
10852;BME280;5479;52.046;6.314;2023-02-19T00:36:40;101607.19;;;9.96;100.00
10852;BME280;5479;52.046;6.314;2023-02-19T00:39:11;101611.63;;;9.95;100.00
10852;BME280;5479;52.046;6.314;2023-02-19T00:41:40;101616.91;;;9.95;100.00
10852;BME280;5479;52.046;6.314;2023-02-19T00:44:09;101619.03;;;9.87;100.00
10852;BME280;5479;52.046;6.314;2023-02-19T00:46:39;101609.44;;;9.85;100.00
10852;BME280;5479;52.046;6.314;2023-02-19T00:49:14;101607.63;;;9.87;100.00
10852;BME280;5479;52.046;6.314;2023-02-19T00:51:43;101609.06;;;9.94;100.00
10852;BME280;5479;52.046;6.314;2023-02-19T00:54:12;101603.91;;;9.91;100.00
10852;BME280;5479;52.046;6.314;2023-02-19T00:56:40;101608.19;;;9.93;100.00
10852;BME280;5479;52.046;6.314;2023-02-19T00:59:08;101601.78;;;9.99;100.00
10852;BME280;5479;52.046;6.314;2023-02-19T01:01:36;101608.97;;;9.95;100.00
10852;BME280;5479;52.046;6.314;2023-02-19T01:04:04;101603.75;;;9.94;100.00
10852;BME280;5479;52.046;6.314;2023-02-19T01:06:34;101594.31;;;9.88;100.00
10852;BME280;5479;52.046;6.314;2023-02-19T01:09:03;101603.25;;;9.86;100.00
10852;BME280;5479;52.046;6.314;2023-02-19T01:11:31;101599.16;;;9.79;100.00
10852;BME280;5479;52.046;6.314;2023-02-19T01:14:00;101605.34;;;9.78;100.00
10852;BME280;5479;52.046;6.314;2023-02-19T01:16:29;101601.59;;;9.83;100.00
10852;BME280;5479;52.046;6.314;2023-02-19T01:18:57;101599.69;;;9.87;100.00
10852;BME280;5479;52.046;6.314;2023-02-19T01:21:26;101604.38;;;9.80;100.00
10852;BME280;5479;52.046;6.314;2023-02-19T01:23:57;101610.44;;;9.82;100.00
10852;BME280;5479;52.046;6.314;2023-02-19T01:26:27;101613.28;;;9.78;100.00
10852;BME280;5479;52.046;6.314;2023-02-19T01:28:55;101619.19;;;9.84;100.00
10852;BME280;5479;52.046;6.314;2023-02-19T01:31:23;101623.38;;;9.90;100.00
10852;BME280;5479;52.046;6.314;2023-02-19T01:33:54;101621.84;;;9.84;100.00
10852;BME280;5479;52.046;6.314;2023-02-19T01:36:23;101622.13;;;9.77;100.00
10852;BME280;5479;52.046;6.314;2023-02-19T01:38:51;101624.41;;;9.86;100.00
10852;BME280;5479;52.046;6.314;2023-02-19T01:41:22;101631.81;;;9.78;100.00
10852;BME280;5479;52.046;6.314;2023-02-19T01:46:51;101623.28;;;9.91;100.00
10852;BME280;5479;52.046;6.314;2023-02-19T01:49:26;101625.94;;;9.91;100.00
10852;BME280;5479;52.046;6.314;2023-02-19T01:51:58;101624.50;;;9.84;100.00
10852;BME280;5479;52.046;6.314;2023-02-19T01:54:29;101620.44;;;9.76;100.00
10852;BME280;5479;52.046;6.314;2023-02-19T01:57:01;101627.31;;;9.80;100.00
10852;BME280;5479;52.046;6.314;2023-02-19T01:59:31;101638.16;;;9.74;100.00
10852;BME280;5479;52.046;6.314;2023-02-19T02:01:59;101630.91;;;9.79;100.00
10852;BME280;5479;52.046;6.314;2023-02-19T02:04:29;101628.03;;;9.83;100.00
10852;BME280;5479;52.046;6.314;2023-02-19T02:06:58;101623.97;;;9.76;100.00
10852;BME280;5479;52.046;6.314;2023-02-19T02:09:29;101631.03;;;9.76;100.00
10852;BME280;5479;52.046;6.314;2023-02-19T02:12:16;101628.91;;;9.84;100.00
10852;BME280;5479;52.046;6.314;2023-02-19T02:14:46;101635.56;;;9.72;100.00
10852;BME280;5479;52.046;6.314;2023-02-19T02:17:20;101634.38;;;9.79;100.00
10852;BME280;5479;52.046;6.314;2023-02-19T02:20:16;101627.75;;;9.69;100.00
10852;BME280;5479;52.046;6.314;2023-02-19T02:22:50;101627.59;;;9.74;100.00
10852;BME280;5479;52.046;6.314;2023-02-19T02:28:35;101636.44;;;9.73;100.00
10852;BME280;5479;52.046;6.314;2023-02-19T02:31:11;101634.78;;;9.70;100.00
10852;BME280;5479;52.046;6.314;2023-02-19T02:33:45;101636.34;;;9.74;100.00
10852;BME280;5479;52.046;6.314;2023-02-19T02:36:17;101635.00;;;9.65;100.00
10852;BME280;5479;52.046;6.314;2023-02-19T02:38:47;101636.44;;;9.73;100.00
10852;BME280;5479;52.046;6.314;2023-02-19T02:41:16;101630.53;;;9.66;100.00
10852;BME280;5479;52.046;6.314;2023-02-19T02:43:44;101632.00;;;9.73;100.00
10852;BME280;5479;52.046;6.314;2023-02-19T02:46:18;101631.19;;;9.71;100.00
10852;BME280;5479;52.046;6.314;2023-02-19T02:48:50;101639.28;;;9.68;100.00
10852;BME280;5479;52.046;6.314;2023-02-19T02:51:25;101630.81;;;9.60;100.00
10852;BME280;5479;52.046;6.314;2023-02-19T02:53:56;101641.97;;;9.66;100.00
10852;BME280;5479;52.046;6.314;2023-02-19T02:56:45;101638.44;;;9.67;100.00
10852;BME280;5479;52.046;6.314;2023-02-19T02:59:17;101647.41;;;9.63;100.00
10852;BME280;5479;52.046;6.314;2023-02-19T03:01:50;101652.56;;;9.66;100.00
10852;BME280;5479;52.046;6.314;2023-02-19T03:04:43;101651.09;;;9.59;100.00
10852;BME280;5479;52.046;6.314;2023-02-19T03:07:30;101654.91;;;9.52;100.00
10852;BME280;5479;52.046;6.314;2023-02-19T03:10:03;101658.50;;;9.51;100.00
10852;BME280;5479;52.046;6.314;2023-02-19T03:12:34;101661.72;;;9.58;100.00
10852;BME280;5479;52.046;6.314;2023-02-19T03:15:23;101658.50;;;9.51;100.00
10852;BME280;5479;52.046;6.314;2023-02-19T03:18:15;101663.59;;;9.56;100.00
10852;BME280;5479;52.046;6.314;2023-02-19T03:21:03;101661.94;;;9.53;100.00
10852;BME280;5479;52.046;6.314;2023-02-19T03:23:34;101661.94;;;9.53;100.00
10852;BME280;5479;52.046;6.314;2023-02-19T03:26:20;101677.75;;;9.55;100.00
10852;BME280;5479;52.046;6.314;2023-02-19T03:28:50;101668.94;;;9.54;100.00
10852;BME280;5479;52.046;6.314;2023-02-19T03:31:38;101661.19;;;9.50;100.00
10852;BME280;5479;52.046;6.314;2023-02-19T03:34:13;101660.47;;;9.46;100.00
10852;BME280;5479;52.046;6.314;2023-02-19T03:36:45;101673.84;;;9.42;100.00
10852;BME280;5479;52.046;6.314;2023-02-19T03:39:19;101669.06;;;9.51;100.00
10852;BME280;5479;52.046;6.314;2023-02-19T03:41:57;101672.88;;;9.44;100.00
10852;BME280;5479;52.046;6.314;2023-02-19T03:44:32;101684.31;;;9.45;100.00
10852;BME280;5479;52.046;6.314;2023-02-19T03:47:11;101682.41;;;9.48;100.00
10852;BME280;5479;52.046;6.314;2023-02-19T03:49:45;101690.41;;;9.47;100.00
10852;BME280;5479;52.046;6.314;2023-02-19T03:52:18;101688.59;;;9.47;100.00
10852;BME280;5479;52.046;6.314;2023-02-19T03:54:51;101692.34;;;9.42;100.00
10852;BME280;5479;52.046;6.314;2023-02-19T03:57:24;101696.75;;;9.43;100.00
10852;BME280;5479;52.046;6.314;2023-02-19T03:59:58;101701.28;;;9.39;100.00
10852;BME280;5479;52.046;6.314;2023-02-19T04:02:32;101697.72;;;9.40;100.00
10852;BME280;5479;52.046;6.314;2023-02-19T04:05:08;101701.16;;;9.42;100.00
10852;BME280;5479;52.046;6.314;2023-02-19T04:07:42;101711.00;;;9.39;100.00
10852;BME280;5479;52.046;6.314;2023-02-19T04:10:12;101711.13;;;9.36;100.00
10852;BME280;5479;52.046;6.314;2023-02-19T04:12:44;101712.13;;;9.33;100.00
10852;BME280;5479;52.046;6.314;2023-02-19T04:15:15;101720.59;;;9.41;100.00
10852;BME280;5479;52.046;6.314;2023-02-19T04:17:50;101712.84;;;9.37;100.00
10852;BME280;5479;52.046;6.314;2023-02-19T04:20:23;101719.00;;;9.37;100.00
10852;BME280;5479;52.046;6.314;2023-02-19T04:22:55;101722.44;;;9.39;100.00
10852;BME280;5479;52.046;6.314;2023-02-19T04:25:25;101734.84;;;9.37;100.00
10852;BME280;5479;52.046;6.314;2023-02-19T04:27:54;101728.81;;;9.34;100.00
10852;BME280;5479;52.046;6.314;2023-02-19T04:30:22;101732.09;;;9.40;100.00
10852;BME280;5479;52.046;6.314;2023-02-19T04:32:50;101736.50;;;9.40;100.00
10852;BME280;5479;52.046;6.314;2023-02-19T04:35:18;101734.16;;;9.32;100.00
10852;BME280;5479;52.046;6.314;2023-02-19T04:37:47;101734.97;;;9.34;100.00
10852;BME280;5479;52.046;6.314;2023-02-19T04:40:15;101744.31;;;9.43;100.00
10852;BME280;5479;52.046;6.314;2023-02-19T04:42:43;101738.28;;;9.39;100.00
10852;BME280;5479;52.046;6.314;2023-02-19T04:45:11;101737.31;;;9.42;100.00
10852;BME280;5479;52.046;6.314;2023-02-19T04:47:39;101748.03;;;9.39;100.00
10852;BME280;5479;52.046;6.314;2023-02-19T04:50:07;101751.50;;;9.39;100.00
10852;BME280;5479;52.046;6.314;2023-02-19T04:52:35;101756.56;;;9.45;100.00
10852;BME280;5479;52.046;6.314;2023-02-19T04:55:05;101771.09;;;9.34;100.00
10852;BME280;5479;52.046;6.314;2023-02-19T04:57:33;101762.47;;;9.30;100.00
10852;BME280;5479;52.046;6.314;2023-02-19T05:00:01;101776.28;;;9.37;100.00
10852;BME280;5479;52.046;6.314;2023-02-19T05:02:30;101773.03;;;9.30;100.00
10852;BME280;5479;52.046;6.314;2023-02-19T05:04:58;101784.41;;;9.32;100.00
10852;BME280;5479;52.046;6.314;2023-02-19T05:07:26;101784.28;;;9.35;100.00
10852;BME280;5479;52.046;6.314;2023-02-19T05:09:53;101786.28;;;9.29;100.00
10852;BME280;5479;52.046;6.314;2023-02-19T05:12:22;101793.38;;;9.28;100.00
10852;BME280;5479;52.046;6.314;2023-02-19T05:14:51;101801.25;;;9.30;100.00
10852;BME280;5479;52.046;6.314;2023-02-19T05:17:19;101797.50;;;9.35;100.00
10852;BME280;5479;52.046;6.314;2023-02-19T05:19:46;101799.00;;;9.19;100.00
10852;BME280;5479;52.046;6.314;2023-02-19T05:22:14;101807.50;;;9.27;100.00
10852;BME280;5479;52.046;6.314;2023-02-19T05:24:43;101809.34;;;9.25;100.00
10852;BME280;5479;52.046;6.314;2023-02-19T05:27:11;101805.75;;;9.26;100.00
10852;BME280;5479;52.046;6.314;2023-02-19T05:29:40;101812.16;;;9.21;100.00
10852;BME280;5479;52.046;6.314;2023-02-19T05:32:08;101805.75;;;9.26;100.00
10852;BME280;5479;52.046;6.314;2023-02-19T05:34:35;101814.84;;;9.19;100.00
10852;BME280;5479;52.046;6.314;2023-02-19T05:37:02;101812.09;;;9.22;100.00
10852;BME280;5479;52.046;6.314;2023-02-19T05:39:30;101814.16;;;9.14;100.00
10852;BME280;5479;52.046;6.314;2023-02-19T05:41:58;101822.97;;;9.15;100.00
10852;BME280;5479;52.046;6.314;2023-02-19T05:44:26;101823.88;;;9.14;100.00
10852;BME280;5479;52.046;6.314;2023-02-19T05:46:55;101821.34;;;9.10;100.00
10852;BME280;5479;52.046;6.314;2023-02-19T05:49:23;101824.78;;;9.13;100.00
10852;BME280;5479;52.046;6.314;2023-02-19T05:51:53;101824.78;;;9.13;100.00
10852;BME280;5479;52.046;6.314;2023-02-19T05:54:20;101821.53;;;9.06;100.00
10852;BME280;5479;52.046;6.314;2023-02-19T05:56:49;101824.84;;;9.11;100.00
10852;BME280;5479;52.046;6.314;2023-02-19T05:59:19;101839.66;;;9.15;100.00
10852;BME280;5479;52.046;6.314;2023-02-19T06:01:48;101835.03;;;9.22;100.00
10852;BME280;5479;52.046;6.314;2023-02-19T06:04:20;101843.34;;;9.11;100.00
10852;BME280;5479;52.046;6.314;2023-02-19T06:06:49;101832.78;;;9.11;100.00
10852;BME280;5479;52.046;6.314;2023-02-19T06:09:17;101843.47;;;9.08;100.00
10852;BME280;5479;52.046;6.314;2023-02-19T06:11:45;101840.00;;;9.06;100.00
10852;BME280;5479;52.046;6.314;2023-02-19T06:14:12;101848.53;;;9.14;100.00
10852;BME280;5479;52.046;6.314;2023-02-19T06:16:41;101853.13;;;9.09;100.00
10852;BME280;5479;52.046;6.314;2023-02-19T06:19:09;101856.34;;;9.17;100.00
10852;BME280;5479;52.046;6.314;2023-02-19T06:21:38;101856.75;;;9.06;100.00
10852;BME280;5479;52.046;6.314;2023-02-19T06:24:07;101863.78;;;9.06;100.00
10852;BME280;5479;52.046;6.314;2023-02-19T06:26:35;101869.94;;;9.06;100.00
10852;BME280;5479;52.046;6.314;2023-02-19T06:29:03;101875.97;;;9.10;100.00
10852;BME280;5479;52.046;6.314;2023-02-19T06:31:31;101878.84;;;9.04;100.00
10852;BME280;5479;52.046;6.314;2023-02-19T06:34:02;101887.75;;;9.01;100.00
10852;BME280;5479;52.046;6.314;2023-02-19T06:36:31;101899.84;;;9.07;100.00
10852;BME280;5479;52.046;6.314;2023-02-19T06:39:02;101908.81;;;9.03;100.00
10852;BME280;5479;52.046;6.314;2023-02-19T06:41:31;101907.16;;;9.00;100.00
10852;BME280;5479;52.046;6.314;2023-02-19T06:43:59;101916.84;;;9.00;100.00
10852;BME280;5479;52.046;6.314;2023-02-19T06:46:27;101911.56;;;9.00;100.00
10852;BME280;5479;52.046;6.314;2023-02-19T06:48:55;101917.72;;;9.00;100.00
10852;BME280;5479;52.046;6.314;2023-02-19T06:51:23;101917.34;;;9.11;100.00
10852;BME280;5479;52.046;6.314;2023-02-19T06:53:52;101922.84;;;9.05;100.00
10852;BME280;5479;52.046;6.314;2023-02-19T06:56:23;101924.66;;;9.03;100.00
10852;BME280;5479;52.046;6.314;2023-02-19T06:58:52;101922.94;;;9.02;100.00
10852;BME280;5479;52.046;6.314;2023-02-19T07:01:20;101921.53;;;8.92;100.00
10852;BME280;5479;52.046;6.314;2023-02-19T07:03:49;101939.22;;;8.90;100.00
10852;BME280;5479;52.046;6.314;2023-02-19T07:06:18;101936.38;;;8.96;100.00
10852;BME280;5479;52.046;6.314;2023-02-19T07:08:46;101946.13;;;8.94;100.00
10852;BME280;5479;52.046;6.314;2023-02-19T07:11:15;101944.31;;;8.96;100.00
10852;BME280;5479;52.046;6.314;2023-02-19T07:13:45;101943.97;;;9.05;100.00
10852;BME280;5479;52.046;6.314;2023-02-19T07:16:14;101944.66;;;9.10;100.00
10852;BME280;5479;52.046;6.314;2023-02-19T07:18:43;101950.94;;;9.07;100.00
10852;BME280;5479;52.046;6.314;2023-02-19T07:21:12;101958.31;;;8.98;100.00
10852;BME280;5479;52.046;6.314;2023-02-19T07:23:41;101972.13;;;9.06;100.00
10852;BME280;5479;52.046;6.314;2023-02-19T07:26:12;101975.69;;;9.05;100.00
10852;BME280;5479;52.046;6.314;2023-02-19T07:28:41;101968.72;;;9.02;100.00
10852;BME280;5479;52.046;6.314;2023-02-19T07:31:11;101975.47;;;9.11;100.00
10852;BME280;5479;52.046;6.314;2023-02-19T07:33:41;101971.44;;;9.01;100.00
10852;BME280;5479;52.046;6.314;2023-02-19T07:36:09;101976.84;;;8.96;100.00
10852;BME280;5479;52.046;6.314;2023-02-19T07:38:37;101989.97;;;8.99;100.00
10852;BME280;5479;52.046;6.314;2023-02-19T07:41:06;101997.19;;;8.94;100.00
10852;BME280;5479;52.046;6.314;2023-02-19T07:43:35;102000.53;;;8.99;100.00
10852;BME280;5479;52.046;6.314;2023-02-19T07:46:05;101988.84;;;9.06;100.00
10852;BME280;5479;52.046;6.314;2023-02-19T07:48:36;102005.53;;;9.07;100.00
10852;BME280;5479;52.046;6.314;2023-02-19T07:51:06;102008.78;;;9.15;100.00
10852;BME280;5479;52.046;6.314;2023-02-19T07:53:34;102012.56;;;9.08;100.00
10852;BME280;5479;52.046;6.314;2023-02-19T07:56:05;102008.78;;;9.15;100.00
10852;BME280;5479;52.046;6.314;2023-02-19T07:58:34;102017.94;;;9.05;100.00
10852;BME280;5479;52.046;6.314;2023-02-19T08:01:07;102014.22;;;9.12;100.00
10852;BME280;5479;52.046;6.314;2023-02-19T08:03:37;101999.97;;;9.16;100.00
10852;BME280;5479;52.046;6.314;2023-02-19T08:06:05;102016.28;;;9.02;100.00
10852;BME280;5479;52.046;6.314;2023-02-19T08:08:33;102015.00;;;9.14;100.00
10852;BME280;5479;52.046;6.314;2023-02-19T08:11:02;102020.41;;;9.11;100.00
10852;BME280;5479;52.046;6.314;2023-02-19T08:13:49;102025.50;;;9.17;100.00
10852;BME280;5479;52.046;6.314;2023-02-19T08:16:18;102034.41;;;9.13;100.00
10852;BME280;5479;52.046;6.314;2023-02-19T08:18:48;102033.72;;;9.08;100.00
10852;BME280;5479;52.046;6.314;2023-02-19T08:21:15;102040.50;;;9.15;100.00
10852;BME280;5479;52.046;6.314;2023-02-19T08:23:46;102043.28;;;9.12;100.00
10852;BME280;5479;52.046;6.314;2023-02-19T08:26:13;102036.25;;;9.11;100.00
10852;BME280;5479;52.046;6.314;2023-02-19T08:28:41;102042.16;;;9.19;100.00
10852;BME280;5479;52.046;6.314;2023-02-19T08:31:11;102053.84;;;9.12;100.00
10852;BME280;5479;52.046;6.314;2023-02-19T08:33:39;102050.25;;;9.15;100.00
10852;BME280;5479;52.046;6.314;2023-02-19T08:36:10;102045.69;;;9.18;100.00
10852;BME280;5479;52.046;6.314;2023-02-19T08:38:38;102061.78;;;9.12;100.00
10852;BME280;5479;52.046;6.314;2023-02-19T08:41:07;102061.56;;;9.18;100.00
10852;BME280;5479;52.046;6.314;2023-02-19T08:43:36;102064.66;;;9.31;100.00
10852;BME280;5479;52.046;6.314;2023-02-19T08:46:05;102070.31;;;9.20;100.00
10852;BME280;5479;52.046;6.314;2023-02-19T08:48:33;102073.19;;;9.13;100.00
10852;BME280;5479;52.046;6.314;2023-02-19T08:51:04;102075.91;;;9.11;100.00
10852;BME280;5479;52.046;6.314;2023-02-19T08:53:36;102090.00;;;9.10;100.00
10852;BME280;5479;52.046;6.314;2023-02-19T08:56:04;102095.63;;;9.27;100.00
10852;BME280;5479;52.046;6.314;2023-02-19T08:58:33;102103.66;;;9.24;100.00
10852;BME280;5479;52.046;6.314;2023-02-19T09:01:05;102103.94;;;9.15;100.00
10852;BME280;5479;52.046;6.314;2023-02-19T09:03:34;102102.03;;;9.20;100.00
10852;BME280;5479;52.046;6.314;2023-02-19T09:06:02;102094.13;;;9.19;100.00
10852;BME280;5479;52.046;6.314;2023-02-19T09:08:30;102096.69;;;9.22;100.00
10852;BME280;5479;52.046;6.314;2023-02-19T09:11:02;102098.97;;;9.32;100.00
10852;BME280;5479;52.046;6.314;2023-02-19T09:13:32;102102.16;;;9.42;100.00
10852;BME280;5479;52.046;6.314;2023-02-19T09:16:02;102111.13;;;9.38;100.00
10852;BME280;5479;52.046;6.314;2023-02-19T09:18:30;102102.16;;;9.42;100.00
10852;BME280;5479;52.046;6.314;2023-02-19T09:20:59;102094.59;;;9.57;100.00
10852;BME280;5479;52.046;6.314;2023-02-19T09:23:27;102102.94;;;9.45;100.00
10852;BME280;5479;52.046;6.314;2023-02-19T09:25:56;102107.16;;;9.51;100.00
10852;BME280;5479;52.046;6.314;2023-02-19T09:28:26;102124.28;;;9.39;100.00
10852;BME280;5479;52.046;6.314;2023-02-19T09:30:54;102132.97;;;9.43;100.00
10852;BME280;5479;52.046;6.314;2023-02-19T09:33:22;102136.91;;;9.57;100.00
10852;BME280;5479;52.046;6.314;2023-02-19T09:35:50;102135.84;;;9.63;100.00
10852;BME280;5479;52.046;6.314;2023-02-19T09:38:18;102143.97;;;9.57;100.00
10852;BME280;5479;52.046;6.314;2023-02-19T09:40:47;102138.81;;;9.79;100.00
10852;BME280;5479;52.046;6.314;2023-02-19T09:43:17;102161.91;;;9.74;100.00
10852;BME280;5479;52.046;6.314;2023-02-19T09:45:53;102170.53;;;9.52;100.00
10852;BME280;5479;52.046;6.314;2023-02-19T09:48:24;102193.88;;;9.40;100.00
10852;BME280;5479;52.046;6.314;2023-02-19T09:50:52;102207.41;;;9.03;100.00
10852;BME280;5479;52.046;6.314;2023-02-19T09:53:24;102202.44;;;8.92;100.00
10852;BME280;5479;52.046;6.314;2023-02-19T09:55:54;102200.09;;;9.11;100.00
10852;BME280;5479;52.046;6.314;2023-02-19T09:58:25;102199.84;;;8.91;100.00
10852;BME280;5479;52.046;6.314;2023-02-19T10:00:59;102209.56;;;8.90;100.00
10852;BME280;5479;52.046;6.314;2023-02-19T10:03:30;102223.72;;;8.59;100.00
10852;BME280;5479;52.046;6.314;2023-02-19T10:06:01;102232.69;;;8.52;100.00
10852;BME280;5479;52.046;6.314;2023-02-19T10:08:34;102236.16;;;8.54;100.00
10852;BME280;5479;52.046;6.314;2023-02-19T10:11:04;102238.25;;;8.42;100.00
10852;BME280;5479;52.046;6.314;2023-02-19T10:13:35;102255.94;;;8.39;100.00
10852;BME280;5479;52.046;6.314;2023-02-19T10:16:09;102245.88;;;8.19;100.00
10852;BME280;5479;52.046;6.314;2023-02-19T10:18:43;102236.66;;;8.35;100.00
10852;BME280;5479;52.046;6.314;2023-02-19T10:21:15;102225.34;;;8.32;100.00
10852;BME280;5479;52.046;6.314;2023-02-19T10:23:43;102236.34;;;8.47;100.00
10852;BME280;5479;52.046;6.314;2023-02-19T10:26:11;102245.66;;;8.61;100.00
10852;BME280;5479;52.046;6.314;2023-02-19T10:28:39;102256.66;;;8.75;100.00
10852;BME280;5479;52.046;6.314;2023-02-19T10:31:18;102261.56;;;8.88;100.00
10852;BME280;5479;52.046;6.314;2023-02-19T10:33:50;102263.47;;;9.13;100.00
10852;BME280;5479;52.046;6.314;2023-02-19T10:36:25;102282.59;;;8.91;100.00
10852;BME280;5479;52.046;6.314;2023-02-19T10:38:54;102285.31;;;8.88;100.00
10852;BME280;5479;52.046;6.314;2023-02-19T10:41:24;102282.91;;;8.81;100.00
10852;BME280;5479;52.046;6.314;2023-02-19T10:43:55;102290.03;;;8.79;100.00
10852;BME280;5479;52.046;6.314;2023-02-19T10:46:30;102294.19;;;8.87;100.00
10852;BME280;5479;52.046;6.314;2023-02-19T10:49:01;102290.94;;;9.07;100.00
10852;BME280;5479;52.046;6.314;2023-02-19T10:51:35;102292.94;;;8.99;100.00
10852;BME280;5479;52.046;6.314;2023-02-19T10:54:06;102294.78;;;8.97;100.00
10852;BME280;5479;52.046;6.314;2023-02-19T10:56:34;102299.72;;;8.78;100.00
10852;BME280;5479;52.046;6.314;2023-02-19T10:59:17;102304.59;;;8.92;100.00
10852;BME280;5479;52.046;6.314;2023-02-19T11:01:55;102311.00;;;8.85;100.00
10852;BME280;5479;52.046;6.314;2023-02-19T11:04:27;102296.13;;;9.12;100.00
10852;BME280;5479;52.046;6.314;2023-02-19T11:07:07;102296.44;;;9.01;100.00
10852;BME280;5479;52.046;6.314;2023-02-19T11:09:37;102299.63;;;9.12;100.00
10852;BME280;5479;52.046;6.314;2023-02-19T11:12:06;102290.84;;;9.10;100.00
10852;BME280;5479;52.046;6.314;2023-02-19T11:14:41;102285.41;;;9.16;100.00
10852;BME280;5479;52.046;6.314;2023-02-19T11:17:21;102292.22;;;9.23;100.00
10852;BME280;5479;52.046;6.314;2023-02-19T11:19:51;102275.72;;;9.15;100.00
10852;BME280;5479;52.046;6.314;2023-02-19T11:22:29;102281.13;;;9.40;100.00
10852;BME280;5479;52.046;6.314;2023-02-19T11:25:04;102289.78;;;9.17;100.00
10852;BME280;5479;52.046;6.314;2023-02-19T11:27:33;102282.53;;;9.24;100.00
10852;BME280;5479;52.046;6.314;2023-02-19T11:33:24;102289.81;;;9.16;100.00
10852;BME280;5479;52.046;6.314;2023-02-19T11:36:16;102287.47;;;9.06;100.00
10852;BME280;5479;52.046;6.314;2023-02-19T11:38:47;102295.31;;;9.08;100.00
10852;BME280;5479;52.046;6.314;2023-02-19T11:41:21;102297.81;;;8.83;100.00
10852;BME280;5479;52.046;6.314;2023-02-19T11:44:12;102298.50;;;8.90;100.00
10852;BME280;5479;52.046;6.314;2023-02-19T11:46:48;102299.31;;;8.92;100.00
10852;BME280;5479;52.046;6.314;2023-02-19T11:49:28;102304.13;;;8.78;100.00
10852;BME280;5479;52.046;6.314;2023-02-19T11:52:23;102299.47;;;8.87;100.00
10852;BME280;5479;52.046;6.314;2023-02-19T11:55:04;102320.25;;;8.69;100.00
10852;BME280;5479;52.046;6.314;2023-02-19T11:57:40;102320.31;;;8.66;100.00
10852;BME280;5479;52.046;6.314;2023-02-19T12:00:19;102309.69;;;8.69;100.00
10852;BME280;5479;52.046;6.314;2023-02-19T12:03:06;102327.81;;;8.48;100.00
10852;BME280;5479;52.046;6.314;2023-02-19T12:05:48;102324.13;;;8.56;100.00
10852;BME280;5479;52.046;6.314;2023-02-19T12:14:29;102333.06;;;8.50;100.00
10852;BME280;5479;52.046;6.314;2023-02-19T12:17:06;102335.75;;;8.48;100.00
10852;BME280;5479;52.046;6.314;2023-02-19T12:19:44;102322.06;;;8.34;100.00
10852;BME280;5479;52.046;6.314;2023-02-19T12:22:27;102321.84;;;8.42;100.00
10852;BME280;5479;52.046;6.314;2023-02-19T12:25:21;102319.81;;;8.53;100.00
10852;BME280;5479;52.046;6.314;2023-02-19T12:28:04;102320.91;;;8.44;100.00
10852;BME280;5479;52.046;6.314;2023-02-19T12:30:50;102320.84;;;8.46;100.00
10852;BME280;5479;52.046;6.314;2023-02-19T12:33:44;102330.75;;;8.38;100.00
10852;BME280;5479;52.046;6.314;2023-02-19T12:36:22;102322.38;;;8.55;100.00
10852;BME280;5479;52.046;6.314;2023-02-19T12:39:03;102325.75;;;8.60;100.00
10852;BME280;5479;52.046;6.314;2023-02-19T12:41:41;102327.34;;;8.67;100.00
10852;BME280;5479;52.046;6.314;2023-02-19T12:44:14;102327.78;;;8.82;100.00
10852;BME280;5479;52.046;6.314;2023-02-19T12:46:50;102326.84;;;8.85;100.00
10852;BME280;5479;52.046;6.314;2023-02-19T12:49:25;102337.28;;;8.57;100.00
10852;BME280;5479;52.046;6.314;2023-02-19T12:51:58;102336.00;;;8.72;100.00
10852;BME280;5479;52.046;6.314;2023-02-19T12:54:33;102335.75;;;8.81;100.00
10852;BME280;5479;52.046;6.314;2023-02-19T12:57:07;102344.47;;;8.84;100.00
10852;BME280;5479;52.046;6.314;2023-02-19T12:59:40;102334.50;;;8.94;100.00
10852;BME280;5479;52.046;6.314;2023-02-19T13:02:14;102341.59;;;8.92;100.00
10852;BME280;5479;52.046;6.314;2023-02-19T13:04:46;102346.97;;;8.89;100.00
10852;BME280;5479;52.046;6.314;2023-02-19T13:07:17;102346.09;;;8.56;100.00
10852;BME280;5479;52.046;6.314;2023-02-19T13:09:51;102345.88;;;8.65;100.00
10852;BME280;5479;52.046;6.314;2023-02-19T13:12:24;102349.22;;;8.72;100.00
10852;BME280;5479;52.046;6.314;2023-02-19T13:14:56;102355.06;;;8.83;100.00
10852;BME280;5479;52.046;6.314;2023-02-19T13:17:35;102359.44;;;8.84;100.00
10852;BME280;5479;52.046;6.314;2023-02-19T13:20:14;102370.38;;;8.70;100.00
10852;BME280;5479;52.046;6.314;2023-02-19T13:22:48;102364.41;;;8.64;100.00
10852;BME280;5479;52.046;6.314;2023-02-19T13:25:47;102377.09;;;8.49;100.00
10852;BME280;5479;52.046;6.314;2023-02-19T13:28:33;102378.97;;;8.44;100.00
10852;BME280;5479;52.046;6.314;2023-02-19T13:31:19;102377.09;;;8.49;100.00
10852;BME280;5479;52.046;6.314;2023-02-19T13:33:58;102382.28;;;8.53;100.00
10852;BME280;5479;52.046;6.314;2023-02-19T13:36:29;102391.38;;;8.42;100.00
10852;BME280;5479;52.046;6.314;2023-02-19T13:38:58;102392.84;;;8.53;100.00
10852;BME280;5479;52.046;6.314;2023-02-19T13:41:30;102400.03;;;8.47;100.00